sensor_id;sensor_type;location;lat;lon;timestamp;P1;durP1;ratioP1;P2;durP2;ratioP2
49578;SDS011;35483;50.828;3.228;2024-03-07T00:01:54;18.88;;;15.57;;
49578;SDS011;35483;50.828;3.228;2024-03-07T00:04:20;21.40;;;16.60;;
49578;SDS011;35483;50.828;3.228;2024-03-07T00:06:46;17.83;;;15.40;;
49578;SDS011;35483;50.828;3.228;2024-03-07T00:09:13;18.33;;;16.08;;
49578;SDS011;35483;50.828;3.228;2024-03-07T00:11:40;16.58;;;14.93;;
49578;SDS011;35483;50.828;3.228;2024-03-07T00:14:06;17.52;;;15.73;;
49578;SDS011;35483;50.828;3.228;2024-03-07T00:16:32;18.50;;;15.52;;
49578;SDS011;35483;50.828;3.228;2024-03-07T00:19:00;16.83;;;15.05;;
49578;SDS011;35483;50.828;3.228;2024-03-07T00:21:26;19.90;;;16.90;;
49578;SDS011;35483;50.828;3.228;2024-03-07T00:23:52;17.33;;;15.43;;
49578;SDS011;35483;50.828;3.228;2024-03-07T00:26:19;18.05;;;15.75;;
49578;SDS011;35483;50.828;3.228;2024-03-07T00:28:44;18.67;;;16.70;;
49578;SDS011;35483;50.828;3.228;2024-03-07T00:31:10;18.65;;;16.15;;
49578;SDS011;35483;50.828;3.228;2024-03-07T00:33:36;18.02;;;16.13;;
49578;SDS011;35483;50.828;3.228;2024-03-07T00:36:02;17.25;;;15.45;;
49578;SDS011;35483;50.828;3.228;2024-03-07T00:38:27;22.85;;;17.33;;
49578;SDS011;35483;50.828;3.228;2024-03-07T00:40:53;17.20;;;15.40;;
49578;SDS011;35483;50.828;3.228;2024-03-07T00:43:19;19.33;;;16.63;;
49578;SDS011;35483;50.828;3.228;2024-03-07T00:45:45;17.35;;;15.63;;
49578;SDS011;35483;50.828;3.228;2024-03-07T00:48:15;18.00;;;15.57;;
49578;SDS011;35483;50.828;3.228;2024-03-07T00:50:42;18.45;;;15.68;;
49578;SDS011;35483;50.828;3.228;2024-03-07T00:53:08;18.00;;;16.10;;
49578;SDS011;35483;50.828;3.228;2024-03-07T00:55:34;17.40;;;15.60;;
49578;SDS011;35483;50.828;3.228;2024-03-07T00:58:00;19.27;;;15.80;;
49578;SDS011;35483;50.828;3.228;2024-03-07T01:00:25;17.17;;;15.38;;
49578;SDS011;35483;50.828;3.228;2024-03-07T01:02:53;17.95;;;15.07;;
49578;SDS011;35483;50.828;3.228;2024-03-07T01:05:19;19.88;;;15.98;;
49578;SDS011;35483;50.828;3.228;2024-03-07T01:07:45;19.17;;;15.93;;
49578;SDS011;35483;50.828;3.228;2024-03-07T01:10:15;18.73;;;16.75;;
49578;SDS011;35483;50.828;3.228;2024-03-07T01:12:41;17.77;;;15.90;;
49578;SDS011;35483;50.828;3.228;2024-03-07T01:15:08;18.75;;;16.75;;
49578;SDS011;35483;50.828;3.228;2024-03-07T01:17:35;18.10;;;16.38;;
49578;SDS011;35483;50.828;3.228;2024-03-07T01:20:01;20.38;;;16.73;;
49578;SDS011;35483;50.828;3.228;2024-03-07T01:22:27;19.60;;;16.63;;
49578;SDS011;35483;50.828;3.228;2024-03-07T01:24:53;20.50;;;17.52;;
49578;SDS011;35483;50.828;3.228;2024-03-07T01:27:19;21.25;;;17.88;;
49578;SDS011;35483;50.828;3.228;2024-03-07T01:29:45;20.95;;;16.77;;
49578;SDS011;35483;50.828;3.228;2024-03-07T01:32:12;19.02;;;17.08;;
49578;SDS011;35483;50.828;3.228;2024-03-07T01:34:38;19.77;;;17.50;;
49578;SDS011;35483;50.828;3.228;2024-03-07T01:37:03;20.83;;;18.30;;
49578;SDS011;35483;50.828;3.228;2024-03-07T01:39:29;23.33;;;18.48;;
49578;SDS011;35483;50.828;3.228;2024-03-07T01:41:55;23.13;;;19.23;;
49578;SDS011;35483;50.828;3.228;2024-03-07T01:44:20;24.75;;;20.52;;
49578;SDS011;35483;50.828;3.228;2024-03-07T01:46:46;23.95;;;19.35;;
49578;SDS011;35483;50.828;3.228;2024-03-07T01:49:15;23.88;;;20.38;;
49578;SDS011;35483;50.828;3.228;2024-03-07T01:51:41;25.25;;;20.85;;
49578;SDS011;35483;50.828;3.228;2024-03-07T01:54:08;27.85;;;22.08;;
49578;SDS011;35483;50.828;3.228;2024-03-07T01:56:34;25.67;;;21.45;;
49578;SDS011;35483;50.828;3.228;2024-03-07T01:59:02;25.40;;;22.27;;
49578;SDS011;35483;50.828;3.228;2024-03-07T02:01:30;29.40;;;22.10;;
49578;SDS011;35483;50.828;3.228;2024-03-07T02:03:56;29.60;;;22.95;;
49578;SDS011;35483;50.828;3.228;2024-03-07T02:06:23;30.50;;;23.30;;
49578;SDS011;35483;50.828;3.228;2024-03-07T02:08:49;29.25;;;23.83;;
49578;SDS011;35483;50.828;3.228;2024-03-07T02:11:15;32.25;;;23.33;;
49578;SDS011;35483;50.828;3.228;2024-03-07T02:13:40;33.08;;;23.95;;
49578;SDS011;35483;50.828;3.228;2024-03-07T02:16:06;30.45;;;23.58;;
49578;SDS011;35483;50.828;3.228;2024-03-07T02:18:34;33.13;;;24.25;;
49578;SDS011;35483;50.828;3.228;2024-03-07T02:21:05;27.23;;;23.52;;
49578;SDS011;35483;50.828;3.228;2024-03-07T02:23:34;29.25;;;23.83;;
49578;SDS011;35483;50.828;3.228;2024-03-07T02:26:00;32.22;;;25.05;;
49578;SDS011;35483;50.828;3.228;2024-03-07T02:28:26;32.50;;;24.73;;
49578;SDS011;35483;50.828;3.228;2024-03-07T02:30:51;28.15;;;23.23;;
49578;SDS011;35483;50.828;3.228;2024-03-07T02:33:19;28.40;;;23.52;;
49578;SDS011;35483;50.828;3.228;2024-03-07T02:35:45;30.60;;;23.90;;
49578;SDS011;35483;50.828;3.228;2024-03-07T02:38:10;33.00;;;23.67;;
49578;SDS011;35483;50.828;3.228;2024-03-07T02:40:36;32.15;;;24.02;;
49578;SDS011;35483;50.828;3.228;2024-03-07T02:43:02;30.27;;;23.95;;
49578;SDS011;35483;50.828;3.228;2024-03-07T02:45:30;31.85;;;23.67;;
49578;SDS011;35483;50.828;3.228;2024-03-07T02:47:56;30.33;;;24.63;;
49578;SDS011;35483;50.828;3.228;2024-03-07T02:50:22;28.88;;;23.90;;
49578;SDS011;35483;50.828;3.228;2024-03-07T02:52:49;31.13;;;24.65;;
49578;SDS011;35483;50.828;3.228;2024-03-07T02:55:15;30.70;;;23.60;;
49578;SDS011;35483;50.828;3.228;2024-03-07T02:57:41;28.90;;;23.35;;
49578;SDS011;35483;50.828;3.228;2024-03-07T03:00:07;35.42;;;25.50;;
49578;SDS011;35483;50.828;3.228;2024-03-07T03:02:45;33.85;;;25.67;;
49578;SDS011;35483;50.828;3.228;2024-03-07T03:05:12;32.65;;;26.30;;
49578;SDS011;35483;50.828;3.228;2024-03-07T03:07:39;33.25;;;25.83;;
49578;SDS011;35483;50.828;3.228;2024-03-07T03:10:06;34.25;;;25.10;;
49578;SDS011;35483;50.828;3.228;2024-03-07T03:12:36;35.65;;;27.10;;
49578;SDS011;35483;50.828;3.228;2024-03-07T03:15:06;34.92;;;25.52;;
49578;SDS011;35483;50.828;3.228;2024-03-07T03:17:35;33.85;;;25.85;;
49578;SDS011;35483;50.828;3.228;2024-03-07T03:20:00;34.60;;;25.15;;
49578;SDS011;35483;50.828;3.228;2024-03-07T03:22:26;32.97;;;26.27;;
49578;SDS011;35483;50.828;3.228;2024-03-07T03:24:52;34.22;;;26.02;;
49578;SDS011;35483;50.828;3.228;2024-03-07T03:27:20;41.00;;;27.52;;
49578;SDS011;35483;50.828;3.228;2024-03-07T03:29:47;35.75;;;27.58;;
49578;SDS011;35483;50.828;3.228;2024-03-07T03:32:13;37.47;;;26.98;;
49578;SDS011;35483;50.828;3.228;2024-03-07T03:34:38;37.60;;;26.73;;
49578;SDS011;35483;50.828;3.228;2024-03-07T03:37:07;39.58;;;28.38;;
49578;SDS011;35483;50.828;3.228;2024-03-07T03:39:34;37.10;;;28.42;;
49578;SDS011;35483;50.828;3.228;2024-03-07T03:42:01;41.70;;;29.00;;
49578;SDS011;35483;50.828;3.228;2024-03-07T03:44:26;40.55;;;28.17;;
49578;SDS011;35483;50.828;3.228;2024-03-07T03:46:52;37.83;;;28.08;;
49578;SDS011;35483;50.828;3.228;2024-03-07T03:49:19;40.03;;;29.45;;
49578;SDS011;35483;50.828;3.228;2024-03-07T03:51:45;39.63;;;29.05;;
49578;SDS011;35483;50.828;3.228;2024-03-07T03:54:10;40.65;;;29.85;;
49578;SDS011;35483;50.828;3.228;2024-03-07T03:56:36;40.85;;;29.40;;
49578;SDS011;35483;50.828;3.228;2024-03-07T03:59:05;39.15;;;28.45;;
49578;SDS011;35483;50.828;3.228;2024-03-07T04:01:31;42.35;;;31.08;;
49578;SDS011;35483;50.828;3.228;2024-03-07T04:03:57;42.13;;;31.27;;
49578;SDS011;35483;50.828;3.228;2024-03-07T04:06:23;47.00;;;32.20;;
49578;SDS011;35483;50.828;3.228;2024-03-07T04:08:49;42.70;;;30.58;;
49578;SDS011;35483;50.828;3.228;2024-03-07T04:11:14;47.03;;;33.67;;
49578;SDS011;35483;50.828;3.228;2024-03-07T04:13:40;46.38;;;31.55;;
49578;SDS011;35483;50.828;3.228;2024-03-07T04:16:05;46.05;;;31.20;;
49578;SDS011;35483;50.828;3.228;2024-03-07T04:18:31;45.60;;;31.88;;
49578;SDS011;35483;50.828;3.228;2024-03-07T04:20:57;50.53;;;34.42;;
49578;SDS011;35483;50.828;3.228;2024-03-07T04:23:23;46.92;;;33.35;;
49578;SDS011;35483;50.828;3.228;2024-03-07T04:25:49;47.97;;;34.30;;
49578;SDS011;35483;50.828;3.228;2024-03-07T04:28:16;48.40;;;33.78;;
49578;SDS011;35483;50.828;3.228;2024-03-07T04:30:42;48.97;;;34.78;;
49578;SDS011;35483;50.828;3.228;2024-03-07T04:33:08;48.85;;;35.72;;
49578;SDS011;35483;50.828;3.228;2024-03-07T04:35:33;49.17;;;36.03;;
49578;SDS011;35483;50.828;3.228;2024-03-07T04:37:59;51.60;;;36.60;;
49578;SDS011;35483;50.828;3.228;2024-03-07T04:40:25;51.40;;;35.17;;
49578;SDS011;35483;50.828;3.228;2024-03-07T04:42:50;56.13;;;37.45;;
49578;SDS011;35483;50.828;3.228;2024-03-07T04:45:16;54.58;;;37.25;;
49578;SDS011;35483;50.828;3.228;2024-03-07T04:47:43;52.58;;;36.70;;
49578;SDS011;35483;50.828;3.228;2024-03-07T04:50:10;51.60;;;37.50;;
49578;SDS011;35483;50.828;3.228;2024-03-07T04:52:37;54.38;;;37.75;;
49578;SDS011;35483;50.828;3.228;2024-03-07T04:55:07;58.10;;;38.15;;
49578;SDS011;35483;50.828;3.228;2024-03-07T04:57:38;55.78;;;38.83;;
49578;SDS011;35483;50.828;3.228;2024-03-07T05:00:08;56.13;;;37.95;;
49578;SDS011;35483;50.828;3.228;2024-03-07T05:02:44;56.75;;;39.33;;
49578;SDS011;35483;50.828;3.228;2024-03-07T05:05:11;58.85;;;41.20;;
49578;SDS011;35483;50.828;3.228;2024-03-07T05:07:38;56.05;;;39.22;;
49578;SDS011;35483;50.828;3.228;2024-03-07T05:10:05;58.78;;;39.38;;
49578;SDS011;35483;50.828;3.228;2024-03-07T05:12:32;59.63;;;39.20;;
49578;SDS011;35483;50.828;3.228;2024-03-07T05:14:58;59.10;;;40.35;;
49578;SDS011;35483;50.828;3.228;2024-03-07T05:17:24;60.85;;;41.13;;
49578;SDS011;35483;50.828;3.228;2024-03-07T05:19:50;57.92;;;37.65;;
49578;SDS011;35483;50.828;3.228;2024-03-07T05:22:16;66.28;;;41.35;;
49578;SDS011;35483;50.828;3.228;2024-03-07T05:24:43;63.78;;;41.75;;
49578;SDS011;35483;50.828;3.228;2024-03-07T05:27:09;62.60;;;42.03;;
49578;SDS011;35483;50.828;3.228;2024-03-07T05:29:38;62.55;;;41.55;;
49578;SDS011;35483;50.828;3.228;2024-03-07T05:32:23;69.57;;;42.08;;
49578;SDS011;35483;50.828;3.228;2024-03-07T05:34:52;63.00;;;42.30;;
49578;SDS011;35483;50.828;3.228;2024-03-07T05:37:19;64.05;;;41.75;;
49578;SDS011;35483;50.828;3.228;2024-03-07T05:39:47;67.95;;;43.40;;
49578;SDS011;35483;50.828;3.228;2024-03-07T05:42:13;69.65;;;44.25;;
49578;SDS011;35483;50.828;3.228;2024-03-07T05:44:40;71.85;;;45.55;;
49578;SDS011;35483;50.828;3.228;2024-03-07T05:47:09;72.18;;;44.00;;
49578;SDS011;35483;50.828;3.228;2024-03-07T05:49:35;69.22;;;44.40;;
49578;SDS011;35483;50.828;3.228;2024-03-07T05:52:02;70.70;;;44.80;;
49578;SDS011;35483;50.828;3.228;2024-03-07T05:54:29;71.45;;;45.05;;
49578;SDS011;35483;50.828;3.228;2024-03-07T05:56:54;77.43;;;46.35;;
49578;SDS011;35483;50.828;3.228;2024-03-07T05:59:20;76.28;;;47.17;;
49578;SDS011;35483;50.828;3.228;2024-03-07T06:01:46;75.20;;;45.83;;
49578;SDS011;35483;50.828;3.228;2024-03-07T06:04:13;75.72;;;46.75;;
49578;SDS011;35483;50.828;3.228;2024-03-07T06:06:40;75.10;;;45.80;;
49578;SDS011;35483;50.828;3.228;2024-03-07T06:09:09;71.85;;;45.80;;
49578;SDS011;35483;50.828;3.228;2024-03-07T06:11:36;79.50;;;47.28;;
49578;SDS011;35483;50.828;3.228;2024-03-07T06:14:07;76.03;;;47.67;;
49578;SDS011;35483;50.828;3.228;2024-03-07T06:16:35;72.38;;;46.33;;
49578;SDS011;35483;50.828;3.228;2024-03-07T06:19:03;75.55;;;46.58;;
49578;SDS011;35483;50.828;3.228;2024-03-07T06:21:33;75.65;;;45.95;;
49578;SDS011;35483;50.828;3.228;2024-03-07T06:24:00;72.70;;;44.88;;
49578;SDS011;35483;50.828;3.228;2024-03-07T06:26:26;76.22;;;47.00;;
49578;SDS011;35483;50.828;3.228;2024-03-07T06:29:16;76.10;;;46.85;;
49578;SDS011;35483;50.828;3.228;2024-03-07T06:31:43;78.45;;;47.08;;
49578;SDS011;35483;50.828;3.228;2024-03-07T06:34:12;74.47;;;47.10;;
49578;SDS011;35483;50.828;3.228;2024-03-07T06:36:38;79.88;;;47.95;;
49578;SDS011;35483;50.828;3.228;2024-03-07T06:39:05;76.97;;;45.72;;
49578;SDS011;35483;50.828;3.228;2024-03-07T06:41:32;77.80;;;46.67;;
49578;SDS011;35483;50.828;3.228;2024-03-07T06:43:58;77.78;;;48.08;;
49578;SDS011;35483;50.828;3.228;2024-03-07T06:46:24;72.85;;;46.30;;
49578;SDS011;35483;50.828;3.228;2024-03-07T06:48:50;75.28;;;45.55;;
49578;SDS011;35483;50.828;3.228;2024-03-07T06:51:16;83.43;;;48.60;;
49578;SDS011;35483;50.828;3.228;2024-03-07T06:53:43;78.47;;;47.15;;
49578;SDS011;35483;50.828;3.228;2024-03-07T06:56:10;86.40;;;48.63;;
49578;SDS011;35483;50.828;3.228;2024-03-07T06:58:37;77.82;;;46.75;;
49578;SDS011;35483;50.828;3.228;2024-03-07T07:01:03;83.32;;;48.00;;
49578;SDS011;35483;50.828;3.228;2024-03-07T07:03:32;78.60;;;46.67;;
49578;SDS011;35483;50.828;3.228;2024-03-07T07:05:58;78.57;;;47.85;;
49578;SDS011;35483;50.828;3.228;2024-03-07T07:08:24;79.35;;;49.20;;
49578;SDS011;35483;50.828;3.228;2024-03-07T07:10:49;83.50;;;47.97;;
49578;SDS011;35483;50.828;3.228;2024-03-07T07:13:15;81.60;;;47.55;;
49578;SDS011;35483;50.828;3.228;2024-03-07T07:15:41;82.97;;;47.90;;
49578;SDS011;35483;50.828;3.228;2024-03-07T07:18:08;85.25;;;47.45;;
49578;SDS011;35483;50.828;3.228;2024-03-07T07:20:35;79.07;;;48.47;;
49578;SDS011;35483;50.828;3.228;2024-03-07T07:23:01;73.35;;;44.40;;
49578;SDS011;35483;50.828;3.228;2024-03-07T07:25:29;84.90;;;48.35;;
49578;SDS011;35483;50.828;3.228;2024-03-07T07:27:56;75.78;;;46.75;;
49578;SDS011;35483;50.828;3.228;2024-03-07T07:30:22;79.90;;;47.55;;
49578;SDS011;35483;50.828;3.228;2024-03-07T07:32:49;83.35;;;50.88;;
49578;SDS011;35483;50.828;3.228;2024-03-07T07:35:16;84.07;;;48.13;;
49578;SDS011;35483;50.828;3.228;2024-03-07T07:37:43;77.13;;;46.67;;
49578;SDS011;35483;50.828;3.228;2024-03-07T07:40:14;82.13;;;45.55;;
49578;SDS011;35483;50.828;3.228;2024-03-07T07:42:46;84.90;;;49.30;;
49578;SDS011;35483;50.828;3.228;2024-03-07T07:45:14;87.35;;;47.75;;
49578;SDS011;35483;50.828;3.228;2024-03-07T07:47:50;83.05;;;46.65;;
49578;SDS011;35483;50.828;3.228;2024-03-07T07:50:17;76.03;;;45.97;;
49578;SDS011;35483;50.828;3.228;2024-03-07T07:52:54;75.72;;;46.45;;
49578;SDS011;35483;50.828;3.228;2024-03-07T07:55:21;82.97;;;48.22;;
49578;SDS011;35483;50.828;3.228;2024-03-07T07:57:54;79.47;;;45.95;;
49578;SDS011;35483;50.828;3.228;2024-03-07T08:00:24;81.50;;;46.28;;
49578;SDS011;35483;50.828;3.228;2024-03-07T08:02:56;76.97;;;45.92;;
49578;SDS011;35483;50.828;3.228;2024-03-07T08:05:34;79.05;;;45.63;;
49578;SDS011;35483;50.828;3.228;2024-03-07T08:08:07;78.80;;;45.10;;
49578;SDS011;35483;50.828;3.228;2024-03-07T08:10:37;77.97;;;44.40;;
49578;SDS011;35483;50.828;3.228;2024-03-07T08:13:04;81.60;;;46.78;;
49578;SDS011;35483;50.828;3.228;2024-03-07T08:15:38;75.03;;;42.85;;
49578;SDS011;35483;50.828;3.228;2024-03-07T08:18:04;84.82;;;45.60;;
49578;SDS011;35483;50.828;3.228;2024-03-07T08:20:36;79.18;;;44.90;;
49578;SDS011;35483;50.828;3.228;2024-03-07T08:23:03;78.63;;;43.08;;
49578;SDS011;35483;50.828;3.228;2024-03-07T08:25:29;73.47;;;42.33;;
49578;SDS011;35483;50.828;3.228;2024-03-07T08:27:58;79.15;;;45.42;;
49578;SDS011;35483;50.828;3.228;2024-03-07T08:30:25;81.05;;;42.95;;
49578;SDS011;35483;50.828;3.228;2024-03-07T08:32:54;80.75;;;43.75;;
49578;SDS011;35483;50.828;3.228;2024-03-07T08:35:21;69.80;;;39.50;;
49578;SDS011;35483;50.828;3.228;2024-03-07T08:37:48;79.75;;;41.28;;
49578;SDS011;35483;50.828;3.228;2024-03-07T08:40:18;77.88;;;43.30;;
49578;SDS011;35483;50.828;3.228;2024-03-07T08:42:48;77.78;;;42.95;;
49578;SDS011;35483;50.828;3.228;2024-03-07T08:45:19;77.07;;;42.07;;
49578;SDS011;35483;50.828;3.228;2024-03-07T08:47:48;75.05;;;41.50;;
49578;SDS011;35483;50.828;3.228;2024-03-07T08:50:17;71.97;;;40.00;;
49578;SDS011;35483;50.828;3.228;2024-03-07T08:52:47;73.28;;;42.58;;
49578;SDS011;35483;50.828;3.228;2024-03-07T08:55:14;74.93;;;42.53;;
49578;SDS011;35483;50.828;3.228;2024-03-07T08:57:42;71.22;;;41.80;;
49578;SDS011;35483;50.828;3.228;2024-03-07T09:00:11;71.32;;;39.53;;
49578;SDS011;35483;50.828;3.228;2024-03-07T09:02:47;71.45;;;37.78;;
49578;SDS011;35483;50.828;3.228;2024-03-07T09:05:17;65.20;;;37.30;;
49578;SDS011;35483;50.828;3.228;2024-03-07T09:07:44;62.47;;;37.65;;
49578;SDS011;35483;50.828;3.228;2024-03-07T09:10:12;70.05;;;39.90;;
49578;SDS011;35483;50.828;3.228;2024-03-07T09:12:39;64.35;;;37.78;;
49578;SDS011;35483;50.828;3.228;2024-03-07T09:15:05;65.00;;;37.55;;
49578;SDS011;35483;50.828;3.228;2024-03-07T09:17:31;70.82;;;37.88;;
49578;SDS011;35483;50.828;3.228;2024-03-07T09:19:57;58.40;;;35.67;;
49578;SDS011;35483;50.828;3.228;2024-03-07T09:22:23;62.03;;;35.40;;
49578;SDS011;35483;50.828;3.228;2024-03-07T09:24:49;68.05;;;36.17;;
49578;SDS011;35483;50.828;3.228;2024-03-07T09:27:15;58.58;;;33.50;;
49578;SDS011;35483;50.828;3.228;2024-03-07T09:29:40;58.63;;;33.47;;
49578;SDS011;35483;50.828;3.228;2024-03-07T09:32:06;57.13;;;33.67;;
49578;SDS011;35483;50.828;3.228;2024-03-07T09:34:36;54.50;;;32.42;;
49578;SDS011;35483;50.828;3.228;2024-03-07T09:37:02;58.35;;;33.17;;
49578;SDS011;35483;50.828;3.228;2024-03-07T09:39:28;56.83;;;34.35;;
49578;SDS011;35483;50.828;3.228;2024-03-07T09:41:56;56.35;;;31.63;;
49578;SDS011;35483;50.828;3.228;2024-03-07T09:44:23;52.47;;;32.50;;
49578;SDS011;35483;50.828;3.228;2024-03-07T09:46:53;54.40;;;33.67;;
49578;SDS011;35483;50.828;3.228;2024-03-07T09:49:20;54.45;;;31.30;;
49578;SDS011;35483;50.828;3.228;2024-03-07T09:51:50;54.42;;;30.00;;
49578;SDS011;35483;50.828;3.228;2024-03-07T09:54:22;48.13;;;30.27;;
49578;SDS011;35483;50.828;3.228;2024-03-07T09:56:54;50.30;;;29.85;;
49578;SDS011;35483;50.828;3.228;2024-03-07T09:59:28;54.13;;;31.83;;
49578;SDS011;35483;50.828;3.228;2024-03-07T10:01:56;49.13;;;29.08;;
49578;SDS011;35483;50.828;3.228;2024-03-07T10:04:47;50.10;;;29.48;;
49578;SDS011;35483;50.828;3.228;2024-03-07T10:07:14;50.20;;;30.15;;
49578;SDS011;35483;50.828;3.228;2024-03-07T10:09:41;48.63;;;29.50;;
49578;SDS011;35483;50.828;3.228;2024-03-07T10:12:08;48.20;;;29.65;;
49578;SDS011;35483;50.828;3.228;2024-03-07T10:14:49;43.63;;;28.20;;
49578;SDS011;35483;50.828;3.228;2024-03-07T10:17:24;44.72;;;28.13;;
49578;SDS011;35483;50.828;3.228;2024-03-07T10:19:54;45.67;;;27.52;;
49578;SDS011;35483;50.828;3.228;2024-03-07T10:22:21;44.08;;;27.42;;
49578;SDS011;35483;50.828;3.228;2024-03-07T10:24:51;44.22;;;27.35;;
49578;SDS011;35483;50.828;3.228;2024-03-07T10:27:20;44.70;;;27.27;;
49578;SDS011;35483;50.828;3.228;2024-03-07T10:29:47;43.78;;;26.45;;
49578;SDS011;35483;50.828;3.228;2024-03-07T10:32:18;43.88;;;27.77;;
49578;SDS011;35483;50.828;3.228;2024-03-07T10:34:45;44.60;;;27.08;;
49578;SDS011;35483;50.828;3.228;2024-03-07T10:37:12;46.72;;;27.45;;
49578;SDS011;35483;50.828;3.228;2024-03-07T10:39:42;43.15;;;27.67;;
49578;SDS011;35483;50.828;3.228;2024-03-07T10:42:09;39.83;;;25.55;;
49578;SDS011;35483;50.828;3.228;2024-03-07T10:44:42;42.55;;;25.73;;
49578;SDS011;35483;50.828;3.228;2024-03-07T10:47:11;41.40;;;25.63;;
49578;SDS011;35483;50.828;3.228;2024-03-07T10:49:57;40.35;;;24.88;;
49578;SDS011;35483;50.828;3.228;2024-03-07T10:52:49;40.13;;;25.13;;
49578;SDS011;35483;50.828;3.228;2024-03-07T10:55:23;41.17;;;25.27;;
49578;SDS011;35483;50.828;3.228;2024-03-07T11:00:31;41.65;;;23.70;;
49578;SDS011;35483;50.828;3.228;2024-03-07T11:03:02;41.72;;;24.08;;
49578;SDS011;35483;50.828;3.228;2024-03-07T11:05:33;37.67;;;24.02;;
49578;SDS011;35483;50.828;3.228;2024-03-07T11:08:00;41.95;;;25.08;;
49578;SDS011;35483;50.828;3.228;2024-03-07T11:10:36;38.15;;;23.90;;
49578;SDS011;35483;50.828;3.228;2024-03-07T11:13:06;42.47;;;25.58;;
49578;SDS011;35483;50.828;3.228;2024-03-07T11:15:42;41.75;;;23.95;;
49578;SDS011;35483;50.828;3.228;2024-03-07T11:18:11;42.20;;;24.35;;
49578;SDS011;35483;50.828;3.228;2024-03-07T11:20:38;38.47;;;24.15;;
49578;SDS011;35483;50.828;3.228;2024-03-07T11:26:08;41.47;;;24.48;;
49578;SDS011;35483;50.828;3.228;2024-03-07T11:28:38;45.53;;;24.10;;
49578;SDS011;35483;50.828;3.228;2024-03-07T11:31:25;38.75;;;24.50;;
49578;SDS011;35483;50.828;3.228;2024-03-07T11:34:14;40.42;;;25.70;;
49578;SDS011;35483;50.828;3.228;2024-03-07T11:36:47;41.13;;;24.27;;
49578;SDS011;35483;50.828;3.228;2024-03-07T11:42:24;39.50;;;24.23;;
49578;SDS011;35483;50.828;3.228;2024-03-07T11:44:56;38.00;;;24.10;;
49578;SDS011;35483;50.828;3.228;2024-03-07T11:47:27;39.70;;;25.13;;
49578;SDS011;35483;50.828;3.228;2024-03-07T11:50:03;40.92;;;25.02;;
49578;SDS011;35483;50.828;3.228;2024-03-07T11:52:36;39.13;;;24.95;;
49578;SDS011;35483;50.828;3.228;2024-03-07T11:55:09;33.72;;;22.10;;
49578;SDS011;35483;50.828;3.228;2024-03-07T11:57:36;39.10;;;24.80;;
49578;SDS011;35483;50.828;3.228;2024-03-07T12:00:03;38.15;;;23.05;;
49578;SDS011;35483;50.828;3.228;2024-03-07T12:02:36;39.38;;;24.95;;
49578;SDS011;35483;50.828;3.228;2024-03-07T12:05:03;35.65;;;23.27;;
49578;SDS011;35483;50.828;3.228;2024-03-07T12:07:32;34.60;;;22.95;;
49578;SDS011;35483;50.828;3.228;2024-03-07T12:09:59;37.50;;;24.35;;
49578;SDS011;35483;50.828;3.228;2024-03-07T12:12:28;37.40;;;23.70;;
49578;SDS011;35483;50.828;3.228;2024-03-07T12:14:55;35.50;;;22.45;;
49578;SDS011;35483;50.828;3.228;2024-03-07T12:17:21;33.30;;;23.00;;
49578;SDS011;35483;50.828;3.228;2024-03-07T12:19:47;35.22;;;23.00;;
49578;SDS011;35483;50.828;3.228;2024-03-07T12:22:20;36.03;;;23.63;;
49578;SDS011;35483;50.828;3.228;2024-03-07T12:25:04;34.53;;;23.38;;
49578;SDS011;35483;50.828;3.228;2024-03-07T12:27:33;36.28;;;22.75;;
49578;SDS011;35483;50.828;3.228;2024-03-07T12:29:59;35.28;;;20.98;;
49578;SDS011;35483;50.828;3.228;2024-03-07T12:32:50;33.13;;;21.15;;
49578;SDS011;35483;50.828;3.228;2024-03-07T12:35:16;33.17;;;20.35;;
49578;SDS011;35483;50.828;3.228;2024-03-07T12:37:43;35.63;;;21.63;;
49578;SDS011;35483;50.828;3.228;2024-03-07T12:40:11;31.92;;;21.70;;
49578;SDS011;35483;50.828;3.228;2024-03-07T12:42:45;32.97;;;21.52;;
49578;SDS011;35483;50.828;3.228;2024-03-07T12:45:12;30.25;;;20.40;;
49578;SDS011;35483;50.828;3.228;2024-03-07T12:47:43;33.97;;;21.58;;
49578;SDS011;35483;50.828;3.228;2024-03-07T12:50:09;34.17;;;21.83;;
49578;SDS011;35483;50.828;3.228;2024-03-07T12:52:36;33.42;;;21.02;;
49578;SDS011;35483;50.828;3.228;2024-03-07T12:55:03;32.58;;;21.48;;
49578;SDS011;35483;50.828;3.228;2024-03-07T12:57:31;31.13;;;20.10;;
49578;SDS011;35483;50.828;3.228;2024-03-07T12:59:57;31.33;;;20.13;;
49578;SDS011;35483;50.828;3.228;2024-03-07T13:02:22;32.03;;;20.58;;
49578;SDS011;35483;50.828;3.228;2024-03-07T13:04:52;32.70;;;20.63;;
49578;SDS011;35483;50.828;3.228;2024-03-07T13:07:18;29.92;;;19.08;;
49578;SDS011;35483;50.828;3.228;2024-03-07T13:09:44;28.80;;;19.85;;
49578;SDS011;35483;50.828;3.228;2024-03-07T13:12:10;29.23;;;20.27;;
49578;SDS011;35483;50.828;3.228;2024-03-07T13:14:35;32.00;;;20.70;;
49578;SDS011;35483;50.828;3.228;2024-03-07T13:17:04;31.27;;;21.80;;
49578;SDS011;35483;50.828;3.228;2024-03-07T13:19:31;30.58;;;20.63;;
49578;SDS011;35483;50.828;3.228;2024-03-07T13:21:57;32.42;;;21.75;;
49578;SDS011;35483;50.828;3.228;2024-03-07T13:24:23;30.10;;;18.25;;
49578;SDS011;35483;50.828;3.228;2024-03-07T13:26:52;27.38;;;19.95;;
49578;SDS011;35483;50.828;3.228;2024-03-07T13:29:19;29.70;;;20.00;;
49578;SDS011;35483;50.828;3.228;2024-03-07T13:31:51;30.73;;;19.85;;
49578;SDS011;35483;50.828;3.228;2024-03-07T13:34:21;30.98;;;19.67;;
49578;SDS011;35483;50.828;3.228;2024-03-07T13:36:46;31.23;;;20.35;;
49578;SDS011;35483;50.828;3.228;2024-03-07T13:39:12;32.25;;;20.92;;
49578;SDS011;35483;50.828;3.228;2024-03-07T13:41:39;31.35;;;19.65;;
49578;SDS011;35483;50.828;3.228;2024-03-07T13:44:08;26.95;;;18.50;;
49578;SDS011;35483;50.828;3.228;2024-03-07T13:46:34;27.85;;;18.65;;
49578;SDS011;35483;50.828;3.228;2024-03-07T13:49:00;28.55;;;19.67;;
49578;SDS011;35483;50.828;3.228;2024-03-07T13:51:37;30.77;;;20.20;;
49578;SDS011;35483;50.828;3.228;2024-03-07T13:54:21;30.08;;;19.52;;
49578;SDS011;35483;50.828;3.228;2024-03-07T14:11:06;27.63;;;18.73;;
49578;SDS011;35483;50.828;3.228;2024-03-07T14:33:35;26.77;;;17.83;;
49578;SDS011;35483;50.828;3.228;2024-03-07T14:36:32;32.00;;;17.17;;
49578;SDS011;35483;50.828;3.228;2024-03-07T14:39:09;26.25;;;17.38;;
49578;SDS011;35483;50.828;3.228;2024-03-07T14:42:01;24.27;;;17.27;;
49578;SDS011;35483;50.828;3.228;2024-03-07T14:44:27;25.20;;;15.73;;
49578;SDS011;35483;50.828;3.228;2024-03-07T14:47:03;22.27;;;16.83;;
49578;SDS011;35483;50.828;3.228;2024-03-07T14:49:31;25.05;;;17.52;;
49578;SDS011;35483;50.828;3.228;2024-03-07T14:51:58;21.67;;;16.75;;
49578;SDS011;35483;50.828;3.228;2024-03-07T14:54:23;24.02;;;16.92;;
49578;SDS011;35483;50.828;3.228;2024-03-07T14:56:50;25.38;;;16.02;;
49578;SDS011;35483;50.828;3.228;2024-03-07T14:59:17;22.95;;;16.70;;
49578;SDS011;35483;50.828;3.228;2024-03-07T15:01:43;22.83;;;17.15;;
49578;SDS011;35483;50.828;3.228;2024-03-07T15:04:09;24.65;;;15.73;;
49578;SDS011;35483;50.828;3.228;2024-03-07T15:06:38;23.83;;;17.60;;
49578;SDS011;35483;50.828;3.228;2024-03-07T15:09:03;23.55;;;17.77;;
49578;SDS011;35483;50.828;3.228;2024-03-07T15:11:35;23.00;;;16.95;;